Time;durP1;ratioP1;P1;durP2;ratioP2;P2;SDS_P1;SDS_P2;PMS_P1;PMS_P2;Temp;Humidity;BMP_temperature;BMP_pressure;BME280_temperature;BME280_humidity;BME280_pressure;Samples;Min_cycle;Max_cycle;Signal;HPM_P1;HPM_P2
2022/05/05 00:00:32;;;;;;;;;;;;;;;10.16;93.87;98420.34;3211847;23;19935;-92
2022/05/05 00:01:53;;;;;;;;;;;;;;;10.14;93.91;98416.94;3211826;23;20320;-91
2022/05/05 00:03:08;;;;;;;;;;;;;;;10.12;93.46;98414.34;3211797;23;19962;-93
2022/05/05 00:04:24;;;;;;;;;;;;;;;10.12;93.84;98418.72;3211400;23;20335;-93
2022/05/05 00:05:39;;;;;;;;;;;;;;;10.11;94.19;98411.78;3211143;23;20206;-93
2022/05/05 00:06:55;;;;;;;;;;;;;;;10.12;94.01;98416.13;3200971;23;19924;-92
2022/05/05 00:08:11;;;;;;;;;;;;;;;10.12;93.88;98413.50;3201344;23;20002;-91
2022/05/05 00:09:27;;;;;;;;;;;;;;;10.10;94.32;98418.75;3211018;23;19920;-91
2022/05/05 00:15:25;;;;;;;;;;;;;;;10.05;93.78;98415.41;3212776;23;19927;-93
2022/05/05 00:16:40;;;;;;;;;;;;;;;10.03;93.88;98414.59;3211268;23;19947;-93
2022/05/05 00:17:56;;;;;;;;;;;;;;;10.02;93.77;98418.13;3211331;23;19920;-92
2022/05/05 00:19:11;;;;;;;;;;;;;;;9.98;94.29;98421.69;3211622;23;20326;-93
2022/05/05 00:20:27;;;;;;;;;;;;;;;9.95;94.29;98416.53;3212442;23;19923;-93
2022/05/05 00:21:42;;;;;;;;;;;;;;;9.92;94.30;98414.00;3212201;23;19975;-91
2022/05/05 00:22:58;;;;;;;;;;;;;;;9.88;94.40;98423.69;3212213;23;19920;-93
2022/05/05 00:24:13;;;;;;;;;;;;;;;9.84;94.08;98420.28;3212827;23;20243;-92
2022/05/05 00:25:29;;;;;;;;;;;;;;;9.83;94.80;98420.34;3212937;23;19924;-94
2022/05/05 00:26:45;;;;;;;;;;;;;;;9.80;95.69;98417.81;3213019;23;19927;-93
2022/05/05 00:28:00;;;;;;;;;;;;;;;9.83;96.35;98423.81;3212461;23;19974;-92
2022/05/05 00:29:15;;;;;;;;;;;;;;;9.82;97.49;98421.25;3212746;23;19924;-92
2022/05/05 00:30:31;;;;;;;;;;;;;;;9.89;97.07;98428.91;3213287;23;19967;-92
2022/05/05 00:31:47;;;;;;;;;;;;;;;9.85;98.52;98431.63;3213693;23;19931;-93
2022/05/05 00:33:03;;;;;;;;;;;;;;;9.91;98.29;98436.69;3215572;23;19924;-93
2022/05/05 00:34:18;;;;;;;;;;;;;;;9.88;98.29;98439.38;3213663;23;19924;-93
2022/05/05 00:35:34;;;;;;;;;;;;;;;9.88;99.12;98436.75;3212981;23;19930;-93
2022/05/05 00:36:49;;;;;;;;;;;;;;;9.88;98.93;98440.25;3212405;23;19969;-93
2022/05/05 00:38:04;;;;;;;;;;;;;;;9.85;98.29;98444.69;3212861;23;19928;-93
2022/05/05 00:39:20;;;;;;;;;;;;;;;9.82;97.86;98444.78;3212534;23;20272;-93
2022/05/05 00:40:36;;;;;;;;;;;;;;;9.78;97.64;98440.50;3211903;23;19920;-93
2022/05/05 00:41:52;;;;;;;;;;;;;;;9.74;97.27;98437.97;3212388;23;19920;-92
2022/05/05 00:43:07;;;;;;;;;;;;;;;9.71;97.24;98443.28;3211975;23;19927;-93
2022/05/05 00:44:22;;;;;;;;;;;;;;;9.66;97.19;98436.44;3211567;23;19924;-92
2022/05/05 00:45:38;;;;;;;;;;;;;;;9.61;96.65;98444.38;3210912;23;19923;-92
2022/05/05 00:46:53;;;;;;;;;;;;;;;9.57;96.83;98442.75;3211027;23;19931;-93
2022/05/05 00:48:09;;;;;;;;;;;;;;;9.54;96.85;98448.06;3211292;23;19952;-93
2022/05/05 00:49:25;;;;;;;;;;;;;;;9.54;96.65;98441.06;3211653;23;20380;-93
2022/05/05 00:50:40;;;;;;;;;;;;;;;9.55;96.73;98445.41;3211902;23;19928;-93
2022/05/05 00:51:58;;;;;;;;;;;;;;;9.54;96.63;98443.69;3212410;23;19964;-94
2022/05/05 00:53:14;;;;;;;;;;;;;;;9.53;97.31;98451.56;3212958;23;20679;-92
2022/05/05 00:54:29;;;;;;;;;;;;;;;9.51;97.34;98442.91;3212785;23;19990;-93
2022/05/05 00:55:45;;;;;;;;;;;;;;;9.50;97.50;98438.56;3213567;23;20259;-94
2022/05/05 00:57:01;;;;;;;;;;;;;;;9.50;97.92;98444.66;3213418;23;19920;-94
2022/05/05 00:58:16;;;;;;;;;;;;;;;9.46;97.99;98443.84;3211525;23;20406;-92
2022/05/05 00:59:33;;;;;;;;;;;;;;;9.46;98.19;98441.25;3201936;23;20040;-93
2022/05/05 01:00:48;;;;;;;;;;;;;;;9.45;98.34;98447.38;3216250;23;20155;-93
2022/05/05 01:02:04;;;;;;;;;;;;;;;9.45;98.50;98441.31;3213669;23;20122;-93
2022/05/05 01:03:19;;;;;;;;;;;;;;;9.45;98.79;98438.69;3212094;23;19939;-92
2022/05/05 01:04:36;;;;;;;;;;;;;;;9.44;98.64;98434.34;3212317;23;20075;-93
2022/05/05 01:05:52;;;;;;;;;;;;;;;9.43;98.13;98436.09;3212604;23;20229;-94
2022/05/05 01:07:08;;;;;;;;;;;;;;;9.35;97.45;98438.00;3211257;23;20011;-93
2022/05/05 01:08:23;;;;;;;;;;;;;;;9.26;97.65;98444.31;3212416;23;19924;-93
2022/05/05 01:09:40;;;;;;;;;;;;;;;9.18;97.75;98443.66;3212767;23;19931;-93
2022/05/05 01:10:56;;;;;;;;;;;;;;;9.14;98.01;98445.47;3212327;23;19920;-93
2022/05/05 01:12:11;;;;;;;;;;;;;;;9.13;97.75;98442.88;3212195;23;20172;-91
2022/05/05 01:13:27;;;;;;;;;;;;;;;9.10;97.37;98442.94;3211188;23;19998;-92
2022/05/05 01:14:44;;;;;;;;;;;;;;;9.10;98.07;98442.94;3215834;23;19924;-94
2022/05/05 01:15:59;;;;;;;;;;;;;;;9.10;98.63;98443.81;3213861;23;19927;-94
2022/05/05 01:17:15;;;;;;;;;;;;;;;9.10;98.45;98435.97;3214217;23;19920;-92
2022/05/05 01:18:30;;;;;;;;;;;;;;;9.07;98.76;98437.81;3214969;23;19942;-94
2022/05/05 01:19:46;;;;;;;;;;;;;;;9.05;98.74;98440.44;3214745;23;20263;-96
2022/05/05 01:21:02;;;;;;;;;;;;;;;9.00;98.50;98443.13;3219623;23;19920;-92
2022/05/05 01:22:18;;;;;;;;;;;;;;;8.92;97.40;98441.59;3221880;23;19948;-93
2022/05/05 01:23:33;;;;;;;;;;;;;;;8.86;97.34;98439.97;3222737;23;19950;-93
2022/05/05 01:28:12;;;;;;;;;;;;;;;8.80;97.24;98454.03;3213404;23;19927;-93
2022/05/05 01:29:27;;;;;;;;;;;;;;;8.79;97.66;98447.06;3225386;23;19908;-95
2022/05/05 01:30:44;;;;;;;;;;;;;;;8.76;97.78;98448.00;3224890;23;19927;-92
2022/05/05 01:31:59;;;;;;;;;;;;;;;8.77;97.93;98446.25;3224963;23;19912;-87
2022/05/05 01:33:15;;;;;;;;;;;;;;;8.81;98.01;98452.25;3218149;23;19955;-93
2022/05/05 01:34:31;;;;;;;;;;;;;;;8.80;98.30;98447.94;3217305;23;19982;-94
2022/05/05 01:35:47;;;;;;;;;;;;;;;8.77;98.37;98451.47;3211487;23;19924;-94
2022/05/05 01:37:03;;;;;;;;;;;;;;;8.76;98.16;98449.75;3211065;23;20401;-93
2022/05/05 01:38:19;;;;;;;;;;;;;;;8.74;97.72;98449.78;3211043;23;19995;-93
2022/05/05 01:39:35;;;;;;;;;;;;;;;8.73;97.66;98449.81;3212210;23;19920;-93
2022/05/05 01:40:51;;;;;;;;;;;;;;;8.73;98.07;98455.03;3212375;23;19924;-94
2022/05/05 01:42:06;;;;;;;;;;;;;;;8.75;98.83;98451.50;3212060;23;20302;-93
2022/05/05 01:43:22;;;;;;;;;;;;;;;8.75;98.91;98458.47;3212360;23;19924;-94
2022/05/05 01:44:37;;;;;;;;;;;;;;;8.75;99.42;98461.94;3211925;23;19924;-94
2022/05/05 01:45:53;;;;;;;;;;;;;;;8.74;99.76;98456.75;3211792;23;19931;-94
2022/05/05 01:47:08;;;;;;;;;;;;;;;8.73;100.00;98466.34;3211849;23;19927;-94
2022/05/05 01:48:24;;;;;;;;;;;;;;;8.73;100.00;98462.88;3212315;23;19974;-93
2022/05/05 01:49:39;;;;;;;;;;;;;;;8.71;100.00;98462.88;3213054;23;19927;-93
2022/05/05 01:50:55;;;;;;;;;;;;;;;8.71;99.98;98467.25;3214222;23;19924;-92
2022/05/05 01:52:10;;;;;;;;;;;;;;;8.66;99.43;98469.97;3214188;23;20320;-93
2022/05/05 01:53:26;;;;;;;;;;;;;;;8.59;98.43;98464.00;3214166;23;20175;-94
2022/05/05 01:54:41;;;;;;;;;;;;;;;8.57;98.37;98471.00;3212959;23;20003;-93
2022/05/05 01:55:57;;;;;;;;;;;;;;;8.55;98.81;98464.97;3212360;23;19950;-94
2022/05/05 01:57:12;;;;;;;;;;;;;;;8.53;98.93;98468.47;3212307;23;19930;-93
2022/05/05 01:58:28;;;;;;;;;;;;;;;8.53;99.38;98469.34;3211642;23;19931;-93
2022/05/05 01:59:43;;;;;;;;;;;;;;;8.54;99.61;98470.19;3211189;23;19923;-94
2022/05/05 02:00:59;;;;;;;;;;;;;;;8.52;100.00;98478.06;3211015;23;19978;-94
2022/05/05 02:02:14;;;;;;;;;;;;;;;8.47;100.00;98477.25;3210941;23;20343;-94
2022/05/05 02:03:29;;;;;;;;;;;;;;;8.49;100.00;98480.69;3214087;23;19912;-94
2022/05/05 02:04:45;;;;;;;;;;;;;;;8.47;100.00;98479.84;3211517;23;19924;-93
2022/05/05 02:06:00;;;;;;;;;;;;;;;8.47;100.00;98477.25;3211368;23;19931;-93
2022/05/05 02:07:16;;;;;;;;;;;;;;;8.46;100.00;98473.78;3211458;23;19970;-93
2022/05/05 02:08:32;;;;;;;;;;;;;;;8.45;100.00;98469.47;3217727;23;20027;-93
2022/05/05 02:09:47;;;;;;;;;;;;;;;8.42;100.00;98468.66;3211172;23;19920;-92
2022/05/05 02:11:03;;;;;;;;;;;;;;;8.34;99.61;98476.63;3211373;23;19941;-93
2022/05/05 02:12:18;;;;;;;;;;;;;;;8.23;99.75;98471.59;3210979;23;19928;-92
2022/05/05 02:13:34;;;;;;;;;;;;;;;8.16;99.67;98476.03;3210993;23;19931;-92
2022/05/05 02:14:49;;;;;;;;;;;;;;;8.14;99.39;98479.59;3211593;23;19935;-92
2022/05/05 02:16:05;;;;;;;;;;;;;;;8.13;99.32;98476.09;3210441;23;20436;-93
2022/05/05 02:17:21;;;;;;;;;;;;;;;8.14;100.00;98476.97;3210857;23;19930;-92
2022/05/05 02:18:36;;;;;;;;;;;;;;;8.16;100.00;98478.66;3211362;23;19930;-95
2022/05/05 02:19:51;;;;;;;;;;;;;;;8.18;100.00;98476.91;3210858;23;19923;-94
2022/05/05 02:21:07;;;;;;;;;;;;;;;8.22;100.00;98482.06;3211146;23;20340;-94
2022/05/05 02:22:22;;;;;;;;;;;;;;;8.25;100.00;98479.38;3210762;23;19923;-93
2022/05/05 02:23:38;;;;;;;;;;;;;;;8.26;100.00;98481.09;3210652;23;19924;-93
2022/05/05 02:24:53;;;;;;;;;;;;;;;8.23;100.00;98476.78;3210517;23;19920;-92
2022/05/05 02:26:09;;;;;;;;;;;;;;;8.24;100.00;98478.53;3210312;23;20271;-93
2022/05/05 02:27:25;;;;;;;;;;;;;;;8.22;100.00;98475.06;3210418;23;19926;-93
2022/05/05 02:28:40;;;;;;;;;;;;;;;8.21;100.00;98483.78;3210300;23;19942;-93
2022/05/05 02:29:55;;;;;;;;;;;;;;;8.16;100.00;98483.03;3210543;23;20411;-94
2022/05/05 02:31:11;;;;;;;;;;;;;;;8.09;100.00;98482.28;3211206;23;19931;-93
2022/05/05 02:32:27;;;;;;;;;;;;;;;8.08;100.00;98477.06;3211184;23;19930;-93
2022/05/05 02:33:42;;;;;;;;;;;;;;;8.01;100.00;98484.13;3211445;23;19924;-94
2022/05/05 02:34:57;;;;;;;;;;;;;;;7.97;100.00;98480.75;3211409;23;19923;-93
2022/05/05 02:39:22;;;;;;;;;;;;;;;8.14;100.00;98480.44;3213192;23;19923;-92
2022/05/05 02:40:38;;;;;;;;;;;;;;;8.19;100.00;98483.84;3215948;23;19920;-93
2022/05/05 02:41:53;;;;;;;;;;;;;;;8.19;100.00;98483.84;3211667;23;20075;-93
2022/05/05 02:43:09;;;;;;;;;;;;;;;8.28;100.00;98488.03;3211531;23;20014;-93
2022/05/05 02:44:26;;;;;;;;;;;;;;;8.22;100.00;98482.91;3211474;23;19923;-93
2022/05/05 02:45:41;;;;;;;;;;;;;;;8.16;100.00;98480.41;3211858;23;19920;-94
2022/05/05 02:46:58;;;;;;;;;;;;;;;8.13;100.00;98481.31;3211861;23;19930;-92
2022/05/05 02:48:13;;;;;;;;;;;;;;;8.09;100.00;98478.78;3211451;23;19950;-92
2022/05/05 02:49:28;;;;;;;;;;;;;;;8.06;100.00;98474.50;3210802;23;19924;-90
2022/05/05 02:50:44;;;;;;;;;;;;;;;8.06;100.00;98471.91;3210771;23;19924;-93
2022/05/05 02:51:59;;;;;;;;;;;;;;;8.04;100.00;98484.94;3210755;23;20224;-92
2022/05/05 02:54:51;;;;;;;;;;;;;;;8.02;100.00;98481.50;3210116;23;19970;-93
2022/05/05 02:56:07;;;;;;;;;;;;;;;7.99;100.00;98484.19;3210976;23;19994;-92
2022/05/05 02:57:23;;;;;;;;;;;;;;;7.97;100.00;98483.34;3210794;23;19924;-93
2022/05/05 02:58:38;;;;;;;;;;;;;;;7.97;100.00;98475.53;3210778;23;19979;-92
2022/05/05 02:59:54;;;;;;;;;;;;;;;7.96;100.00;98476.41;3211309;23;19980;-92
2022/05/05 03:01:09;;;;;;;;;;;;;;;7.96;100.00;98476.41;3211181;23;19982;-93
2022/05/05 03:02:25;;;;;;;;;;;;;;;7.96;100.00;98478.16;3211278;23;19947;-94
2022/05/05 03:03:41;;;;;;;;;;;;;;;7.97;100.00;98485.97;3211435;23;19920;-94
2022/05/05 03:04:56;;;;;;;;;;;;;;;7.97;100.00;98480.75;3210888;23;20264;-93
2022/05/05 03:06:11;;;;;;;;;;;;;;;7.96;100.00;98479.03;3211429;23;19924;-93
2022/05/05 03:07:27;;;;;;;;;;;;;;;7.97;100.00;98478.13;3212628;23;19924;-93
2022/05/05 03:08:42;;;;;;;;;;;;;;;7.97;100.00;98478.13;3214603;23;20050;-93
2022/05/05 03:09:58;;;;;;;;;;;;;;;7.97;100.00;98480.75;3214988;23;19931;-93
2022/05/05 03:11:13;;;;;;;;;;;;;;;7.93;100.00;98480.81;3214893;23;19931;-90
2022/05/05 03:12:29;;;;;;;;;;;;;;;7.91;100.00;98479.09;3214944;23;19927;-92
2022/05/05 03:13:44;;;;;;;;;;;;;;;7.89;100.00;98480.88;3214673;23;19924;-93
2022/05/05 03:15:00;;;;;;;;;;;;;;;7.88;100.00;98480.88;3212371;23;19924;-93
2022/05/05 03:16:15;;;;;;;;;;;;;;;7.86;100.00;98477.44;3210526;23;20058;-92
2022/05/05 03:17:31;;;;;;;;;;;;;;;7.84;100.00;98480.06;3212019;23;19923;-93
2022/05/05 03:18:47;;;;;;;;;;;;;;;7.84;100.00;98476.63;3215956;23;19927;-93
2022/05/05 03:20:03;;;;;;;;;;;;;;;7.85;100.00;98479.19;3212091;23;19968;-93
2022/05/05 03:21:19;;;;;;;;;;;;;;;7.82;100.00;98479.22;3211432;23;19920;-93
2022/05/05 03:22:34;;;;;;;;;;;;;;;7.82;100.00;98480.97;3211420;23;19987;-93
2022/05/05 03:23:50;;;;;;;;;;;;;;;7.81;100.00;98476.66;3211419;23;19927;-91
2022/05/05 03:25:05;;;;;;;;;;;;;;;7.80;100.00;98477.53;3211406;23;19930;-93
2022/05/05 03:26:20;;;;;;;;;;;;;;;7.76;100.00;98482.81;3211600;23;19931;-94
2022/05/05 03:27:37;;;;;;;;;;;;;;;7.78;100.00;98485.41;3211480;23;19928;-92
2022/05/05 03:28:52;;;;;;;;;;;;;;;7.77;100.00;98483.69;3212342;23;20268;-94
2022/05/05 03:30:08;;;;;;;;;;;;;;;7.74;100.00;98484.56;3211559;23;19930;-94
2022/05/05 03:31:23;;;;;;;;;;;;;;;7.74;100.00;98481.09;3212142;23;20424;-93
2022/05/05 03:32:39;;;;;;;;;;;;;;;7.75;100.00;98480.22;3214316;23;20015;-93
2022/05/05 03:33:55;;;;;;;;;;;;;;;7.77;100.00;98474.09;3213048;23;19920;-93
2022/05/05 03:35:10;;;;;;;;;;;;;;;7.83;100.00;98480.13;3211168;23;20003;-93
2022/05/05 03:36:26;;;;;;;;;;;;;;;7.85;100.00;98478.34;3210824;23;19924;-94
2022/05/05 03:37:41;;;;;;;;;;;;;;;7.87;100.00;98479.16;3209813;23;19931;-92
2022/05/05 03:38:57;;;;;;;;;;;;;;;7.89;100.00;98480.88;3210637;23;19930;-93
2022/05/05 03:40:12;;;;;;;;;;;;;;;7.95;100.00;98486.84;3211436;23;19946;-93
2022/05/05 03:41:28;;;;;;;;;;;;;;;7.95;100.00;98484.25;3213172;23;19924;-94
2022/05/05 03:42:43;;;;;;;;;;;;;;;7.96;100.00;98486.84;3212647;23;20287;-93
2022/05/05 03:43:59;;;;;;;;;;;;;;;7.96;100.00;98485.97;3211347;23;19924;-93
2022/05/05 03:45:14;;;;;;;;;;;;;;;7.98;100.00;98487.69;3212018;23;20415;-93
2022/05/05 03:46:30;;;;;;;;;;;;;;;8.00;100.00;98491.13;3212097;23;19928;-94
2022/05/05 03:47:46;;;;;;;;;;;;;;;8.02;100.00;98486.72;3211873;23;19924;-94
2022/05/05 03:49:01;;;;;;;;;;;;;;;8.05;100.00;98484.06;3212251;23;19924;-93
2022/05/05 03:50:17;;;;;;;;;;;;;;;8.08;100.00;98493.59;3212000;23;19924;-88
2022/05/05 03:51:32;;;;;;;;;;;;;;;8.12;100.00;98495.25;3209760;23;19923;-88
2022/05/05 03:52:48;;;;;;;;;;;;;;;8.15;100.00;98492.59;3209602;23;19924;-88
2022/05/05 03:54:03;;;;;;;;;;;;;;;8.18;100.00;98496.91;3209971;23;19930;-88
2022/05/05 03:55:19;;;;;;;;;;;;;;;8.23;100.00;98508.09;3209762;23;19924;-86
2022/05/05 03:56:34;;;;;;;;;;;;;;;8.32;100.00;98504.50;3209583;23;19924;-90
2022/05/05 03:57:50;;;;;;;;;;;;;;;8.34;100.00;98503.56;3211192;23;19943;-88
2022/05/05 03:59:06;;;;;;;;;;;;;;;8.38;100.00;98509.59;3209925;23;19979;-89
2022/05/05 04:00:22;;;;;;;;;;;;;;;8.38;100.00;98506.97;3209013;23;19919;-89
2022/05/05 04:01:38;;;;;;;;;;;;;;;8.38;100.00;98512.19;3209329;23;19931;-87
2022/05/05 04:04:27;;;;;;;;;;;;;;;8.57;100.00;98514.50;3214959;23;19920;-90
2022/05/05 04:05:43;;;;;;;;;;;;;;;8.64;100.00;98510.00;3211263;23;19924;-90
2022/05/05 04:06:58;;;;;;;;;;;;;;;8.61;100.00;98516.16;3209914;23;20538;-89
2022/05/05 04:08:14;;;;;;;;;;;;;;;8.58;100.00;98517.09;3209916;23;19950;-89
2022/05/05 04:09:30;;;;;;;;;;;;;;;8.59;100.00;98512.72;3209804;23;19928;-88
2022/05/05 04:10:45;;;;;;;;;;;;;;;8.61;100.00;98522.25;3209598;23;20335;-87
2022/05/05 04:12:00;;;;;;;;;;;;;;;8.64;100.00;98515.22;3209696;23;20327;-87
2022/05/05 04:13:16;;;;;;;;;;;;;;;8.71;100.00;98514.25;3209752;23;19931;-88
2022/05/05 04:14:33;;;;;;;;;;;;;;;8.71;100.00;98514.25;3209070;23;19924;-89
2022/05/05 04:15:49;;;;;;;;;;;;;;;8.79;100.00;98508.88;3209640;23;19995;-88
2022/05/05 04:17:04;;;;;;;;;;;;;;;8.85;100.00;98517.44;3217816;23;19924;-88
2022/05/05 04:18:20;;;;;;;;;;;;;;;8.86;100.00;98519.16;3220508;23;19920;-88
2022/05/05 04:19:36;;;;;;;;;;;;;;;8.92;100.00;98520.78;3221383;23;19931;-92
2022/05/05 04:20:51;;;;;;;;;;;;;;;8.96;100.00;98519.84;3215442;23;19930;-89
2022/05/05 04:22:07;;;;;;;;;;;;;;;8.93;100.00;98514.69;3211334;23;19927;-89
2022/05/05 04:23:23;;;;;;;;;;;;;;;8.95;100.00;98519.88;3211557;23;19939;-88
2022/05/05 04:24:38;;;;;;;;;;;;;;;8.92;100.00;98512.09;3211103;23;19920;-88
2022/05/05 04:25:54;;;;;;;;;;;;;;;8.84;100.00;98520.94;3209519;23;20248;-89
2022/05/05 04:27:09;;;;;;;;;;;;;;;8.89;100.00;98516.47;3209375;23;20244;-89
2022/05/05 04:28:25;;;;;;;;;;;;;;;8.89;100.00;98519.09;3209157;23;20367;-91
2022/05/05 04:29:41;;;;;;;;;;;;;;;8.94;100.00;98525.97;3209270;23;20343;-92
2022/05/05 04:30:56;;;;;;;;;;;;;;;8.90;100.00;98518.19;3209048;23;19923;-91
2022/05/05 04:32:12;;;;;;;;;;;;;;;8.96;100.00;98524.22;3208486;23;20407;-87
2022/05/05 04:33:27;;;;;;;;;;;;;;;9.02;100.00;98529.28;3208405;23;19979;-87
2022/05/05 04:34:43;;;;;;;;;;;;;;;9.01;100.00;98522.34;3208792;23;20098;-87
2022/05/05 04:35:59;;;;;;;;;;;;;;;8.98;100.00;98519.81;3208558;23;20382;-87
2022/05/05 04:37:14;;;;;;;;;;;;;;;8.97;100.00;98525.94;3208361;23;20597;-87
2022/05/05 04:38:29;;;;;;;;;;;;;;;8.94;100.00;98521.63;3209020;23;19928;-87
2022/05/05 04:39:45;;;;;;;;;;;;;;;8.93;100.00;98526.84;3209509;23;20679;-87
2022/05/05 04:41:03;;;;;;;;;;;;;;;8.90;100.00;98526.03;3209281;23;20374;-87
2022/05/05 04:42:18;;;;;;;;;;;;;;;8.89;100.00;98518.25;3209697;23;19924;-88
2022/05/05 04:43:34;;;;;;;;;;;;;;;8.88;100.00;98527.81;3209935;23;19927;-87
2022/05/05 04:44:49;;;;;;;;;;;;;;;8.88;100.00;98527.81;3209128;23;19928;-89
2022/05/05 04:46:06;;;;;;;;;;;;;;;8.87;100.00;98526.09;3208420;23;20295;-88
2022/05/05 04:47:21;;;;;;;;;;;;;;;8.90;100.00;98531.25;3209133;23;19930;-87
2022/05/05 04:48:37;;;;;;;;;;;;;;;8.91;100.00;98526.91;3209199;23;19923;-89
2022/05/05 04:49:55;;;;;;;;;;;;;;;8.88;100.00;98520.00;3209560;23;20418;-88
2022/05/05 04:51:10;;;;;;;;;;;;;;;8.88;100.00;98520.00;3209121;23;20006;-88
2022/05/05 04:52:26;;;;;;;;;;;;;;;8.92;100.00;98522.53;3208816;23;19969;-88
2022/05/05 04:53:42;;;;;;;;;;;;;;;8.96;100.00;98532.03;3208355;23;19924;-88
2022/05/05 04:54:57;;;;;;;;;;;;;;;8.99;100.00;98530.22;3209484;23;20332;-89
2022/05/05 04:56:14;;;;;;;;;;;;;;;9.04;100.00;98528.38;3209309;23;19920;-89
2022/05/05 04:57:29;;;;;;;;;;;;;;;9.12;100.00;98525.63;3208998;23;20441;-90
2022/05/05 04:58:45;;;;;;;;;;;;;;;9.22;100.00;98528.00;3209346;23;19928;-89
2022/05/05 05:00:00;;;;;;;;;;;;;;;9.30;100.00;98520.88;3209145;23;20048;-89
2022/05/05 05:01:15;;;;;;;;;;;;;;;9.34;100.00;98527.75;3209381;23;20099;-90
2022/05/05 05:02:31;;;;;;;;;;;;;;;9.40;100.00;98529.38;3208811;23;20030;-89
2022/05/05 05:03:47;;;;;;;;;;;;;;;9.47;100.00;98528.34;3209388;23;19970;-90
2022/05/05 05:05:03;;;;;;;;;;;;;;;9.46;100.00;98527.50;3209517;23;20014;-92
2022/05/05 05:06:18;;;;;;;;;;;;;;;9.49;100.00;98531.78;3210247;23;20320;-91
2022/05/05 05:07:33;;;;;;;;;;;;;;;9.57;100.00;98529.88;3210844;23;19987;-91
2022/05/05 05:08:49;;;;;;;;;;;;;;;9.63;100.00;98536.69;3210786;23;19946;-92
2022/05/05 05:10:05;;;;;;;;;;;;;;;9.65;100.00;98531.44;3211741;23;19930;-94
2022/05/05 05:11:20;;;;;;;;;;;;;;;9.70;100.00;98527.84;3211835;23;20423;-93
2022/05/05 05:12:35;;;;;;;;;;;;;;;9.71;100.00;98531.31;3210295;23;19924;-84
2022/05/05 05:13:51;;;;;;;;;;;;;;;9.74;100.00;98528.63;3208700;23;19924;-87
2022/05/05 05:15:07;;;;;;;;;;;;;;;9.78;100.00;98532.00;3208439;23;19970;-86
2022/05/05 05:16:22;;;;;;;;;;;;;;;9.82;100.00;98536.28;3208821;23;20247;-87
2022/05/05 05:17:38;;;;;;;;;;;;;;;9.88;100.00;98536.13;3208823;23;20010;-85
2022/05/05 05:18:54;;;;;;;;;;;;;;;9.90;100.00;98536.97;3208231;23;19978;-86
2022/05/05 05:20:09;;;;;;;;;;;;;;;9.95;100.00;98539.47;3208573;23;19923;-86
2022/05/05 05:21:25;;;;;;;;;;;;;;;9.96;100.00;98542.06;3208592;23;19978;-86
2022/05/05 05:22:40;;;;;;;;;;;;;;;9.96;100.00;98549.91;3207438;23;19926;-85
2022/05/05 05:23:56;;;;;;;;;;;;;;;9.95;100.00;98535.13;3207945;23;19920;-85
2022/05/05 05:25:11;;;;;;;;;;;;;;;9.95;100.00;98536.84;3208878;23;20240;-86
2022/05/05 05:26:27;;;;;;;;;;;;;;;9.95;100.00;98537.72;3208259;23;19923;-85
2022/05/05 05:27:42;;;;;;;;;;;;;;;9.99;100.00;98541.13;3208698;23;19959;-87
2022/05/05 05:28:57;;;;;;;;;;;;;;;10.02;100.00;98533.22;3208496;23;19950;-86
2022/05/05 05:30:13;;;;;;;;;;;;;;;10.06;100.00;98537.47;3208782;23;19924;-85
2022/05/05 05:31:28;;;;;;;;;;;;;;;10.09;100.00;98541.75;3208667;23;19930;-85
2022/05/05 05:32:43;;;;;;;;;;;;;;;10.08;100.00;98545.28;3208535;23;20339;-85
2022/05/05 05:33:59;;;;;;;;;;;;;;;10.13;100.00;98541.66;3208525;23;19923;-85
2022/05/05 05:35:15;;;;;;;;;;;;;;;10.18;100.00;98546.75;3208791;23;19923;-85
2022/05/05 05:36:31;;;;;;;;;;;;;;;10.21;100.00;98548.44;3208582;23;19978;-85
2022/05/05 05:37:46;;;;;;;;;;;;;;;10.24;100.00;98544.00;3208407;23;19924;-85
2022/05/05 05:39:01;;;;;;;;;;;;;;;10.28;100.00;98548.25;3208656;23;19939;-85
2022/05/05 05:40:17;;;;;;;;;;;;;;;10.30;100.00;98551.69;3208812;23;19927;-86
2022/05/05 05:41:32;;;;;;;;;;;;;;;10.32;100.00;98547.25;3208552;23;19924;-85
2022/05/05 05:42:50;;;;;;;;;;;;;;;10.34;100.00;98546.38;3207584;23;20747;-86
2022/05/05 05:44:05;;;;;;;;;;;;;;;10.38;100.00;98550.66;3208462;23;20401;-87
2022/05/05 05:45:21;;;;;;;;;;;;;;;10.43;100.00;98551.41;3209168;23;19924;-84
2022/05/05 05:46:37;;;;;;;;;;;;;;;10.49;100.00;98553.88;3208488;23;19951;-86
2022/05/05 05:47:53;;;;;;;;;;;;;;;10.52;100.00;98551.19;3208836;23;19924;-86
2022/05/05 05:49:09;;;;;;;;;;;;;;;10.52;100.00;98551.19;3208430;23;19924;-86
2022/05/05 05:50:27;;;;;;;;;;;;;;;10.52;100.00;98559.03;3208626;23;20327;-86
2022/05/05 05:51:42;;;;;;;;;;;;;;;10.51;100.00;98557.31;3209042;23;20003;-88
2022/05/05 05:52:58;;;;;;;;;;;;;;;10.51;100.00;98559.06;3208223;23;20362;-89
2022/05/05 05:54:13;;;;;;;;;;;;;;;10.51;100.00;98562.56;3208651;23;19924;-86
2022/05/05 05:55:29;;;;;;;;;;;;;;;10.53;100.00;98559.88;3208450;23;19923;-85
2022/05/05 05:56:45;;;;;;;;;;;;;;;10.56;100.00;98567.69;3208646;23;19979;-85
2022/05/05 05:58:00;;;;;;;;;;;;;;;10.54;100.00;98565.09;3208448;23;20799;-86
2022/05/05 05:59:16;;;;;;;;;;;;;;;10.57;100.00;98567.63;3208717;23;20319;-86
2022/05/05 06:00:32;;;;;;;;;;;;;;;10.58;100.00;98569.34;3208450;23;20086;-86
2022/05/05 06:04:56;;;;;;;;;;;;;;;10.61;100.00;98568.41;3212983;23;19923;-85
2022/05/05 06:06:11;;;;;;;;;;;;;;;10.59;100.00;98576.28;3208485;23;19930;-87
2022/05/05 06:07:28;;;;;;;;;;;;;;;10.63;100.00;98571.00;3208911;23;20022;-86
2022/05/05 06:08:44;;;;;;;;;;;;;;;10.63;100.00;98574.44;3208732;23;20268;-86
2022/05/05 06:09:59;;;;;;;;;;;;;;;10.66;100.00;98573.53;3209120;23;19994;-86
2022/05/05 06:11:17;;;;;;;;;;;;;;;10.69;100.00;98573.44;3209350;23;20133;-86
2022/05/05 06:12:32;;;;;;;;;;;;;;;10.72;100.00;98575.97;3208715;23;20392;-86
2022/05/05 06:13:48;;;;;;;;;;;;;;;10.77;100.00;98573.22;3208787;23;19931;-87
2022/05/05 06:15:04;;;;;;;;;;;;;;;10.78;100.00;98575.81;3208802;23;19973;-86
2022/05/05 06:16:20;;;;;;;;;;;;;;;10.84;100.00;98573.03;3208134;23;19928;-86
2022/05/05 06:17:36;;;;;;;;;;;;;;;10.88;100.00;98577.28;3207323;23;20007;-86
2022/05/05 06:18:51;;;;;;;;;;;;;;;10.94;100.00;98575.41;3207755;23;20340;-86
2022/05/05 06:20:07;;;;;;;;;;;;;;;10.97;100.00;98581.44;3208401;23;19924;-86
2022/05/05 06:21:22;;;;;;;;;;;;;;;10.99;100.00;98578.75;3208278;23;19928;-87
2022/05/05 06:22:38;;;;;;;;;;;;;;;10.99;100.00;98574.38;3208005;23;19930;-86
2022/05/05 06:23:54;;;;;;;;;;;;;;;11.00;100.00;98580.47;3208393;23;19987;-86
2022/05/05 06:25:12;;;;;;;;;;;;;;;11.03;100.00;98577.75;3209510;23;20422;-86
2022/05/05 06:26:28;;;;;;;;;;;;;;;11.06;100.00;98587.28;3208967;23;19946;-86
2022/05/05 06:27:43;;;;;;;;;;;;;;;11.08;100.00;98588.97;3209857;23;19920;-88
2022/05/05 06:28:59;;;;;;;;;;;;;;;11.11;100.00;98581.03;3209365;23;20542;-86
2022/05/05 06:30:15;;;;;;;;;;;;;;;11.15;100.00;98585.28;3209276;23;19924;-88
2022/05/05 06:31:30;;;;;;;;;;;;;;;11.19;100.00;98582.59;3208430;23;19928;-86
2022/05/05 06:32:46;;;;;;;;;;;;;;;11.24;100.00;98585.94;3208137;23;19931;-85
2022/05/05 06:34:01;;;;;;;;;;;;;;;11.26;100.00;98586.75;3208431;23;19966;-86
2022/05/05 06:35:17;;;;;;;;;;;;;;;11.28;100.00;98585.81;3208198;23;19927;-86
2022/05/05 06:36:33;;;;;;;;;;;;;;;11.32;100.00;98589.19;3208465;23;20098;-86
2022/05/05 06:37:50;;;;;;;;;;;;;;;11.35;100.00;98589.09;3208231;23;20015;-86
2022/05/05 06:39:06;;;;;;;;;;;;;;;11.42;100.00;98585.38;3208337;23;19954;-86
2022/05/05 06:40:21;;;;;;;;;;;;;;;11.42;100.00;98590.63;3208569;23;19919;-86
2022/05/05 06:41:37;;;;;;;;;;;;;;;11.46;100.00;98580.09;3208535;23;19927;-86
2022/05/05 06:42:52;;;;;;;;;;;;;;;11.51;100.00;98580.78;3208426;23;19924;-85
2022/05/05 06:44:08;;;;;;;;;;;;;;;11.56;100.00;98585.00;3208714;23;19924;-85
2022/05/05 06:45:23;;;;;;;;;;;;;;;11.59;100.00;98584.03;3208892;23;19924;-86
2022/05/05 06:46:39;;;;;;;;;;;;;;;11.61;100.00;98582.25;3208319;23;20336;-86
2022/05/05 06:47:58;;;;;;;;;;;;;;;11.61;100.00;98587.50;3208448;23;20734;-85
2022/05/05 06:49:14;;;;;;;;;;;;;;;11.59;100.00;98586.66;3208799;23;19924;-86
2022/05/05 06:50:29;;;;;;;;;;;;;;;11.65;100.00;98588.22;3209883;23;19924;-87
2022/05/05 06:51:45;;;;;;;;;;;;;;;11.73;100.00;98584.50;3208818;23;19919;-86